PWSweather.com
Personal Weather Stations
Station Observations
MAKAWAOWX1
Up Country Maui, Makawao, HI 96768

Up Country MauiMakawao, HI 96768

Lat: 20.856944, Lon: -156.3149667

Elevation: 1500

Station Type: Davis Vantage Pro

Latest ConditionsUpdated 6:50:27 PM HST Monday, Jul 6, 2015
Currently Today's Max Today's Min Today's Average
Temperature 71.8°F22.1°C 83.0°F28.3°C 67.0°F19.4°C 74.5°F23.6°C
Dew Point 64.6°F18.1°C 69.1°F20.6°C 62.2°F16.8°C 65.3°F18.5°C
Winds 5.5 mph NE8.9 kmh NE 13.8 mph E22.2 kmh E - 6.6 mph 10.6 kmh
Wind Gusts 10.0 mph16.1 kmh 24.0 mph38.6 kmh - -
Humidity 78% 93% 54% 74%
Pressure 29.88 in1011.9 mb 29.91 in1012.9 mb 29.84 in1010.5 mb -
Precipitation - 0.02 in0.5 mm - -
Hour Temp Dew Point Humidity Winds Wind Gusts Pressure Precip Precip Rate Daily Precip Total
06:50 PM 71.8°F22.1°C 64.6°F18.1°C 78% 5.5 mph NE8.9 kmh NE 10.0 mph16.1 kmh 29.88 in1011.9 mb - 0.00 in0.0 mm 0.02 in0.5 mm
06:40 PM 72.0°F22.2°C 65.1°F18.4°C 79% 2.8 mph E4.5 kmh E 11.0 mph17.7 kmh 29.88 in1011.9 mb - 0.00 in0.0 mm 0.02 in0.5 mm
06:30 PM 72.5°F22.5°C 66.0°F18.9°C 80% 3.5 mph ENE5.6 kmh ENE 11.0 mph17.7 kmh 29.87 in1011.5 mb - 0.00 in0.0 mm 0.02 in0.5 mm
06:20 PM 73.5°F23.1°C 66.5°F19.2°C 79% 2.5 mph ENE4.0 kmh ENE 13.0 mph20.9 kmh 29.87 in1011.5 mb - 0.00 in0.0 mm 0.02 in0.5 mm
06:10 PM 74.6°F23.7°C 66.9°F19.4°C 77% 4.6 mph E7.4 kmh E 15.0 mph24.1 kmh 29.86 in1011.2 mb - 0.00 in0.0 mm 0.02 in0.5 mm
06:00 PM 74.8°F23.8°C 65.9°F18.8°C 74% 10.9 mph ENE17.5 kmh ENE 17.0 mph27.4 kmh 29.86 in1011.2 mb - 0.00 in0.0 mm 0.02 in0.5 mm
05:50 PM 75.7°F24.3°C 65.2°F18.4°C 70% 5.5 mph NE8.9 kmh NE 14.0 mph22.5 kmh 29.86 in1011.2 mb - 0.00 in0.0 mm 0.02 in0.5 mm
05:40 PM 76.3°F24.6°C 65.8°F18.8°C 70% 9.7 mph ENE15.6 kmh ENE 15.0 mph24.1 kmh 29.85 in1010.8 mb - 0.00 in0.0 mm 0.02 in0.5 mm
05:30 PM 76.3°F24.6°C 66.2°F19.0°C 71% 6.9 mph ENE11.1 kmh ENE 13.0 mph20.9 kmh 29.85 in1010.8 mb - 0.00 in0.0 mm 0.02 in0.5 mm
05:20 PM 76.6°F24.8°C 66.1°F18.9°C 70% 4.6 mph E7.4 kmh E 10.0 mph16.1 kmh 29.85 in1010.8 mb - 0.00 in0.0 mm 0.02 in0.5 mm
05:10 PM 77.3°F25.2°C 66.7°F19.3°C 70% 8.8 mph E14.2 kmh E 14.0 mph22.5 kmh 29.84 in1010.5 mb - 0.00 in0.0 mm 0.02 in0.5 mm
05:00 PM 77.8°F25.4°C 67.2°F19.6°C 70% 6.0 mph E9.7 kmh E 14.0 mph22.5 kmh 29.85 in1010.8 mb - 0.00 in0.0 mm 0.02 in0.5 mm
04:50 PM 78.1°F25.6°C 65.4°F18.6°C 65% 13.8 mph E22.2 kmh E 19.0 mph30.6 kmh 29.85 in1010.8 mb - 0.00 in0.0 mm 0.02 in0.5 mm
04:40 PM 78.4°F25.8°C 67.4°F19.7°C 69% 5.9 mph E9.5 kmh E 19.0 mph30.6 kmh 29.85 in1010.8 mb - 0.00 in0.0 mm 0.02 in0.5 mm
04:30 PM 78.6°F25.9°C 67.6°F19.8°C 69% 13.3 mph ENE21.4 kmh ENE 19.0 mph30.6 kmh 29.85 in1010.8 mb - 0.00 in0.0 mm 0.02 in0.5 mm
04:20 PM 78.9°F26.1°C 67.0°F19.4°C 67% 10.9 mph E17.5 kmh E 13.0 mph20.9 kmh 29.85 in1010.8 mb - 0.00 in0.0 mm 0.02 in0.5 mm
04:10 PM 79.2°F26.2°C 66.0°F18.9°C 64% 12.8 mph ENE20.6 kmh ENE 18.0 mph29.0 kmh 29.85 in1010.8 mb - 0.00 in0.0 mm 0.02 in0.5 mm
04:00 PM 79.8°F26.6°C 66.5°F19.2°C 64% 8.8 mph ENE14.2 kmh ENE 13.0 mph20.9 kmh 29.85 in1010.8 mb - 0.00 in0.0 mm 0.02 in0.5 mm
03:50 PM 79.9°F26.6°C 67.6°F19.8°C 66% 13.1 mph E21.1 kmh E 19.0 mph30.6 kmh 29.85 in1010.8 mb - 0.00 in0.0 mm 0.02 in0.5 mm
03:40 PM 80.8°F27.1°C 66.6°F19.2°C 62% 12.1 mph ENE19.5 kmh ENE 24.0 mph38.6 kmh 29.85 in1010.8 mb - 0.00 in0.0 mm 0.02 in0.5 mm
03:30 PM 81.5°F27.5°C 66.2°F19.0°C 60% 10.9 mph ENE17.5 kmh ENE 18.0 mph29.0 kmh 29.85 in1010.8 mb - 0.00 in0.0 mm 0.02 in0.5 mm
03:20 PM 82.1°F27.8°C 66.4°F19.1°C 59% 12.5 mph ENE20.1 kmh ENE 20.0 mph32.2 kmh 29.85 in1010.8 mb - 0.00 in0.0 mm 0.02 in0.5 mm
03:10 PM 82.2°F27.9°C 65.9°F18.8°C 58% 9.0 mph ENE14.5 kmh ENE 17.0 mph27.4 kmh 29.85 in1010.8 mb - 0.00 in0.0 mm 0.02 in0.5 mm
03:00 PM 82.2°F27.9°C 66.9°F19.4°C 60% 9.3 mph ENE15.0 kmh ENE 17.0 mph27.4 kmh 29.85 in1010.8 mb - 0.00 in0.0 mm 0.02 in0.5 mm
02:50 PM 82.5°F28.1°C 66.7°F19.3°C 59% 11.8 mph NE19.0 kmh NE 21.0 mph33.8 kmh 29.85 in1010.8 mb - 0.00 in0.0 mm 0.02 in0.5 mm
02:40 PM 82.1°F27.8°C 66.4°F19.1°C 59% 11.0 mph ENE17.7 kmh ENE 13.0 mph20.9 kmh 29.86 in1011.2 mb - 0.00 in0.0 mm 0.02 in0.5 mm
02:30 PM 82.8°F28.2°C 66.0°F18.9°C 57% 11.4 mph E18.3 kmh E 16.0 mph25.7 kmh 29.86 in1011.2 mb - 0.00 in0.0 mm 0.02 in0.5 mm
02:20 PM 82.5°F28.1°C 65.7°F18.7°C 57% 6.0 mph ENE9.7 kmh ENE 12.0 mph19.3 kmh 29.86 in1011.2 mb - 0.00 in0.0 mm 0.02 in0.5 mm
02:10 PM 81.7°F27.6°C 64.5°F18.1°C 56% 9.1 mph E14.6 kmh E 12.0 mph19.3 kmh 29.86 in1011.2 mb - 0.00 in0.0 mm 0.02 in0.5 mm
02:00 PM 81.7°F27.6°C 65.5°F18.6°C 58% 9.9 mph E15.9 kmh E 12.0 mph19.3 kmh 29.86 in1011.2 mb - 0.00 in0.0 mm 0.02 in0.5 mm
01:50 PM 82.6°F28.1°C 64.2°F17.9°C 54% 12.2 mph ENE19.6 kmh ENE 17.0 mph27.4 kmh 29.86 in1011.2 mb - 0.00 in0.0 mm 0.02 in0.5 mm
01:40 PM 82.5°F28.1°C 66.2°F19.0°C 58% 10.1 mph ENE16.3 kmh ENE 15.0 mph24.1 kmh 29.86 in1011.2 mb - 0.00 in0.0 mm 0.02 in0.5 mm
01:30 PM 83.0°F28.3°C 67.2°F19.6°C 59% 10.2 mph E16.4 kmh E 17.0 mph27.4 kmh 29.86 in1011.2 mb - 0.00 in0.0 mm 0.02 in0.5 mm
01:20 PM 82.8°F28.2°C 68.4°F20.2°C 62% 5.7 mph E9.2 kmh E 5.0 mph8.0 kmh 29.86 in1011.2 mb - 0.00 in0.0 mm 0.02 in0.5 mm
01:10 PM 82.7°F28.2°C 67.9°F19.9°C 61% 10.2 mph E16.4 kmh E 15.0 mph24.1 kmh 29.86 in1011.2 mb - 0.00 in0.0 mm 0.02 in0.5 mm
01:00 PM 83.0°F28.3°C 66.7°F19.3°C 58% 10.3 mph E16.6 kmh E 16.0 mph25.7 kmh 29.87 in1011.5 mb - 0.00 in0.0 mm 0.02 in0.5 mm
12:50 PM 82.7°F28.2°C 65.9°F18.8°C 57% 12.0 mph ENE19.3 kmh ENE 15.0 mph24.1 kmh 29.87 in1011.5 mb - 0.00 in0.0 mm 0.02 in0.5 mm
12:40 PM 82.7°F28.2°C 66.4°F19.1°C 58% 7.7 mph ENE12.4 kmh ENE 14.0 mph22.5 kmh 29.87 in1011.5 mb - 0.00 in0.0 mm 0.02 in0.5 mm
12:30 PM 82.1°F27.8°C 65.9°F18.8°C 58% 3.6 mph E5.8 kmh E 9.0 mph14.5 kmh 29.88 in1011.9 mb - 0.00 in0.0 mm 0.02 in0.5 mm
12:20 PM 82.1°F27.8°C 64.8°F18.2°C 56% 7.3 mph E11.7 kmh E 14.0 mph22.5 kmh 29.88 in1011.9 mb - 0.00 in0.0 mm 0.02 in0.5 mm
12:10 PM 81.7°F27.6°C 65.0°F18.3°C 57% 4.7 mph E7.6 kmh E 11.0 mph17.7 kmh 29.88 in1011.9 mb - 0.00 in0.0 mm 0.02 in0.5 mm
12:00 PM 80.6°F27.0°C 64.5°F18.1°C 58% 12.6 mph E20.3 kmh E 18.0 mph29.0 kmh 29.89 in1012.2 mb - 0.00 in0.0 mm 0.02 in0.5 mm
11:50 AM 80.5°F26.9°C 64.4°F18.0°C 58% 11.2 mph E18.0 kmh E 13.0 mph20.9 kmh 29.89 in1012.2 mb - 0.00 in0.0 mm 0.02 in0.5 mm
11:40 AM 80.2°F26.8°C 66.0°F18.9°C 62% 11.4 mph E18.3 kmh E 13.0 mph20.9 kmh 29.89 in1012.2 mb - 0.00 in0.0 mm 0.02 in0.5 mm
11:30 AM 79.6°F26.4°C 66.8°F19.3°C 65% 8.0 mph E12.9 kmh E 14.0 mph22.5 kmh 29.89 in1012.2 mb - 0.00 in0.0 mm 0.02 in0.5 mm
11:20 AM 78.7°F25.9°C 66.8°F19.3°C 67% 4.9 mph E7.9 kmh E 16.0 mph25.7 kmh 29.89 in1012.2 mb - 0.00 in0.0 mm 0.02 in0.5 mm
11:10 AM 78.2°F25.7°C 66.8°F19.3°C 68% 8.3 mph E13.4 kmh E 12.0 mph19.3 kmh 29.90 in1012.5 mb - 0.00 in0.0 mm 0.02 in0.5 mm
11:00 AM 77.6°F25.3°C 66.6°F19.2°C 69% 9.6 mph E15.4 kmh E 12.0 mph19.3 kmh 29.90 in1012.5 mb - 0.00 in0.0 mm 0.02 in0.5 mm
10:50 AM 77.0°F25.0°C 66.9°F19.4°C 71% 7.2 mph E11.6 kmh E 14.0 mph22.5 kmh 29.90 in1012.5 mb - 0.00 in0.0 mm 0.02 in0.5 mm
10:40 AM 77.1°F25.1°C 67.4°F19.7°C 72% 11.2 mph E18.0 kmh E 19.0 mph30.6 kmh 29.91 in1012.9 mb - 0.00 in0.0 mm 0.02 in0.5 mm
10:30 AM 78.5°F25.8°C 69.1°F20.6°C 73% 5.7 mph E9.2 kmh E 13.0 mph20.9 kmh 29.90 in1012.5 mb - 0.00 in0.0 mm 0.02 in0.5 mm
10:20 AM 78.8°F26.0°C 67.8°F19.9°C 69% 10.2 mph ENE16.4 kmh ENE 14.0 mph22.5 kmh 29.90 in1012.5 mb - 0.00 in0.0 mm 0.02 in0.5 mm
10:10 AM 78.3°F25.7°C 67.3°F19.6°C 69% 4.6 mph E7.4 kmh E 10.0 mph16.1 kmh 29.90 in1012.5 mb - 0.00 in0.0 mm 0.02 in0.5 mm
10:00 AM 78.4°F25.8°C 67.8°F19.9°C 70% 12.5 mph NE20.1 kmh NE 17.0 mph27.4 kmh 29.89 in1012.2 mb - 0.00 in0.0 mm 0.02 in0.5 mm
09:50 AM 78.2°F25.7°C 67.6°F19.8°C 70% 11.5 mph NE18.5 kmh NE 21.0 mph33.8 kmh 29.89 in1012.2 mb - 0.00 in0.0 mm 0.02 in0.5 mm
09:40 AM 78.1°F25.6°C 67.9°F19.9°C 71% 9.1 mph ENE14.6 kmh ENE 16.0 mph25.7 kmh 29.89 in1012.2 mb - 0.00 in0.0 mm 0.02 in0.5 mm
09:30 AM 77.7°F25.4°C 67.1°F19.5°C 70% 10.0 mph E16.1 kmh E 17.0 mph27.4 kmh 29.90 in1012.5 mb - 0.00 in0.0 mm 0.02 in0.5 mm
09:20 AM 77.5°F25.3°C 66.5°F19.2°C 69% 8.0 mph ENE12.9 kmh ENE 13.0 mph20.9 kmh 29.89 in1012.2 mb - 0.00 in0.0 mm 0.02 in0.5 mm
09:10 AM 77.2°F25.1°C 67.5°F19.7°C 72% 6.6 mph NE10.6 kmh NE 14.0 mph22.5 kmh 29.89 in1012.2 mb - 0.00 in0.0 mm 0.02 in0.5 mm
09:00 AM 76.2°F24.6°C 67.3°F19.6°C 74% 5.2 mph ENE8.4 kmh ENE 14.0 mph22.5 kmh 29.89 in1012.2 mb - 0.00 in0.0 mm 0.02 in0.5 mm
08:50 AM 75.0°F23.9°C 66.6°F19.2°C 75% 3.0 mph E4.8 kmh E 10.0 mph16.1 kmh 29.90 in1012.5 mb - 0.00 in0.0 mm 0.02 in0.5 mm
08:40 AM 74.2°F23.4°C 67.3°F19.6°C 79% 7.9 mph E12.7 kmh E 10.0 mph16.1 kmh 29.90 in1012.5 mb - 0.00 in0.0 mm 0.02 in0.5 mm
08:30 AM 74.1°F23.4°C 66.1°F18.9°C 76% 8.1 mph ENE13.0 kmh ENE 12.0 mph19.3 kmh 29.90 in1012.5 mb - 0.00 in0.0 mm 0.02 in0.5 mm
08:20 AM 73.7°F23.2°C 65.6°F18.7°C 76% 2.9 mph E4.7 kmh E 3.0 mph4.8 kmh 29.90 in1012.5 mb - 0.00 in0.0 mm 0.02 in0.5 mm
08:10 AM 72.9°F22.7°C 64.9°F18.3°C 76% 7.0 mph E11.3 kmh E 13.0 mph20.9 kmh 29.90 in1012.5 mb - 0.00 in0.0 mm 0.02 in0.5 mm
08:00 AM 72.8°F22.7°C 65.9°F18.8°C 79% 8.6 mph E13.8 kmh E 9.0 mph14.5 kmh 29.90 in1012.5 mb - 0.00 in0.0 mm 0.02 in0.5 mm
07:50 AM 72.3°F22.4°C 65.8°F18.8°C 80% 6.6 mph E10.6 kmh E 12.0 mph19.3 kmh 29.89 in1012.2 mb - 0.00 in0.0 mm 0.02 in0.5 mm
07:40 AM 71.6°F22.0°C 65.8°F18.8°C 82% 0.6 mph ENE1.0 kmh ENE -- 29.89 in1012.2 mb - 0.00 in0.0 mm 0.02 in0.5 mm
07:30 AM 71.1°F21.7°C 65.7°F18.7°C 83% 6.7 mph E10.8 kmh E 11.0 mph17.7 kmh 29.89 in1012.2 mb - 0.00 in0.0 mm 0.02 in0.5 mm
07:20 AM 70.4°F21.3°C 65.3°F18.5°C 84% 7.4 mph E11.9 kmh E 11.0 mph17.7 kmh 29.89 in1012.2 mb - 0.00 in0.0 mm 0.02 in0.5 mm
07:10 AM 69.7°F20.9°C 65.0°F18.3°C 85% 2.2 mph ENE3.5 kmh ENE 12.0 mph19.3 kmh 29.89 in1012.2 mb - 0.00 in0.0 mm 0.02 in0.5 mm
07:00 AM 69.1°F20.6°C 64.4°F18.0°C 85% 5.8 mph E9.3 kmh E 11.0 mph17.7 kmh 29.89 in1012.2 mb - 0.00 in0.0 mm 0.02 in0.5 mm
06:50 AM 68.2°F20.1°C 63.9°F17.7°C 86% 5.3 mph NE8.5 kmh NE 8.0 mph12.9 kmh 29.89 in1012.2 mb - 0.00 in0.0 mm 0.02 in0.5 mm
06:40 AM 68.0°F20.0°C 63.7°F17.6°C 86% 1.2 mph ENE1.9 kmh ENE -- 29.89 in1012.2 mb - 0.00 in0.0 mm 0.02 in0.5 mm
06:30 AM 68.2°F20.1°C 63.5°F17.5°C 85% 0.9 mph ENE1.4 kmh ENE 8.0 mph12.9 kmh 29.88 in1011.9 mb - 0.00 in0.0 mm 0.02 in0.5 mm
06:20 AM 68.2°F20.1°C 63.5°F17.5°C 85% 3.6 mph E5.8 kmh E 8.0 mph12.9 kmh 29.88 in1011.9 mb - 0.00 in0.0 mm 0.02 in0.5 mm
06:10 AM 68.0°F20.0°C 63.6°F17.6°C 86% 1.1 mph E1.8 kmh E 2.0 mph3.2 kmh 29.88 in1011.9 mb - 0.00 in0.0 mm 0.02 in0.5 mm
06:00 AM 67.4°F19.7°C 63.4°F17.4°C 87% 8.2 mph E13.2 kmh E 11.0 mph17.7 kmh 29.88 in1011.9 mb - 0.00 in0.0 mm 0.02 in0.5 mm
05:50 AM 67.3°F19.6°C 63.6°F17.6°C 88% 1.3 mph E2.1 kmh E 4.0 mph6.4 kmh 29.88 in1011.9 mb - 0.00 in0.0 mm 0.02 in0.5 mm
05:40 AM 67.2°F19.6°C 63.5°F17.5°C 88% 6.0 mph E9.7 kmh E 9.0 mph14.5 kmh 29.87 in1011.5 mb - 0.00 in0.0 mm 0.02 in0.5 mm
05:30 AM 67.2°F19.6°C 63.8°F17.7°C 89% 4.2 mph E6.8 kmh E 9.0 mph14.5 kmh 29.87 in1011.5 mb - 0.00 in0.0 mm 0.02 in0.5 mm
05:20 AM 67.2°F19.6°C 63.8°F17.7°C 89% 1.9 mph E3.1 kmh E 10.0 mph16.1 kmh 29.87 in1011.5 mb - 0.00 in0.0 mm 0.02 in0.5 mm
05:10 AM 67.1°F19.5°C 64.1°F17.8°C 90% 7.9 mph E12.7 kmh E 12.0 mph19.3 kmh 29.87 in1011.5 mb - 0.00 in0.0 mm 0.02 in0.5 mm
05:00 AM 67.0°F19.4°C 64.0°F17.8°C 90% 4.0 mph E6.4 kmh E 8.0 mph12.9 kmh 29.87 in1011.5 mb - 0.00 in0.0 mm 0.02 in0.5 mm
04:50 AM 67.1°F19.5°C 64.4°F18.0°C 91% 6.5 mph E10.5 kmh E 10.0 mph16.1 kmh 29.87 in1011.5 mb - 0.00 in0.0 mm 0.02 in0.5 mm
04:40 AM 67.2°F19.6°C 64.8°F18.2°C 92% 2.3 mph E3.7 kmh E 4.0 mph6.4 kmh 29.87 in1011.5 mb - 0.00 in0.0 mm 0.02 in0.5 mm
04:30 AM 67.2°F19.6°C 64.8°F18.2°C 92% 1.6 mph E2.6 kmh E 3.0 mph4.8 kmh 29.87 in1011.5 mb - 0.00 in0.0 mm 0.02 in0.5 mm
04:20 AM 67.4°F19.7°C 65.3°F18.5°C 93% 1.6 mph E2.6 kmh E 2.0 mph3.2 kmh 29.87 in1011.5 mb - 0.00 in0.0 mm 0.02 in0.5 mm
04:10 AM 67.4°F19.7°C 65.3°F18.5°C 93% 4.7 mph ENE7.6 kmh ENE 5.0 mph8.0 kmh 29.88 in1011.9 mb - 0.01 in0.3 mm 0.02 in0.5 mm
04:00 AM 67.6°F19.8°C 65.2°F18.4°C 92% 0.6 mph ENE1.0 kmh ENE -- 29.88 in1011.9 mb - 0.01 in0.3 mm 0.01 in0.3 mm
03:50 AM 67.9°F19.9°C 65.2°F18.4°C 91% 0.6 mph NE1.0 kmh NE 6.0 mph9.7 kmh 29.88 in1011.9 mb - 0.00 in0.0 mm 0.00 in0.0 mm
03:40 AM 68.3°F20.2°C 64.9°F18.3°C 89% 7.2 mph NE11.6 kmh NE 11.0 mph17.7 kmh 29.87 in1011.5 mb - 0.00 in0.0 mm 0.00 in0.0 mm
03:30 AM 68.8°F20.4°C 64.8°F18.2°C 87% 5.3 mph NE8.5 kmh NE 9.0 mph14.5 kmh 29.87 in1011.5 mb - 0.00 in0.0 mm 0.00 in0.0 mm
03:20 AM 68.9°F20.5°C 64.5°F18.1°C 86% 3.7 mph ENE6.0 kmh ENE 7.0 mph11.3 kmh 29.87 in1011.5 mb - 0.00 in0.0 mm 0.00 in0.0 mm
03:10 AM 68.6°F20.3°C 63.9°F17.7°C 85% 5.1 mph ENE8.2 kmh ENE 8.0 mph12.9 kmh 29.87 in1011.5 mb - 0.00 in0.0 mm 0.00 in0.0 mm
03:00 AM 68.6°F20.3°C 63.6°F17.6°C 84% 2.6 mph E4.2 kmh E 5.0 mph8.0 kmh 29.87 in1011.5 mb - 0.00 in0.0 mm 0.00 in0.0 mm
02:50 AM 68.8°F20.4°C 63.1°F17.3°C 82% 0.4 mph E0.6 kmh E -- 29.87 in1011.5 mb - 0.00 in0.0 mm 0.00 in0.0 mm
02:40 AM 68.8°F20.4°C 62.7°F17.1°C 81% 4.0 mph E6.4 kmh E 8.0 mph12.9 kmh 29.87 in1011.5 mb - 0.00 in0.0 mm 0.00 in0.0 mm
02:30 AM 69.1°F20.6°C 62.7°F17.1°C 80% 1.4 mph E2.3 kmh E 4.0 mph6.4 kmh 29.87 in1011.5 mb - 0.00 in0.0 mm 0.00 in0.0 mm
02:20 AM 69.2°F20.7°C 62.4°F16.9°C 79% 5.7 mph E9.2 kmh E 9.0 mph14.5 kmh 29.87 in1011.5 mb - 0.00 in0.0 mm 0.00 in0.0 mm
02:10 AM 69.5°F20.8°C 62.7°F17.1°C 79% 4.2 mph E6.8 kmh E 7.0 mph11.3 kmh 29.87 in1011.5 mb - 0.00 in0.0 mm 0.00 in0.0 mm
02:00 AM 69.8°F21.0°C 62.6°F17.0°C 78% 0.6 mph E1.0 kmh E -- 29.87 in1011.5 mb - 0.00 in0.0 mm 0.00 in0.0 mm
01:50 AM 69.9°F21.1°C 62.3°F16.8°C 77% 3.6 mph E5.8 kmh E 4.0 mph6.4 kmh 29.88 in1011.9 mb - 0.00 in0.0 mm 0.00 in0.0 mm
01:40 AM 70.0°F21.1°C 62.5°F16.9°C 77% 0.1 mph E0.2 kmh E -- 29.88 in1011.9 mb - 0.00 in0.0 mm 0.00 in0.0 mm
01:30 AM 70.2°F21.2°C 62.6°F17.0°C 77% 2.7 mph E4.3 kmh E 7.0 mph11.3 kmh 29.88 in1011.9 mb - 0.00 in0.0 mm 0.00 in0.0 mm
01:20 AM 70.3°F21.3°C 62.4°F16.9°C 76% 4.2 mph E6.8 kmh E 9.0 mph14.5 kmh 29.88 in1011.9 mb - 0.00 in0.0 mm 0.00 in0.0 mm
01:10 AM 70.2°F21.2°C 62.7°F17.1°C 77% 5.8 mph E9.3 kmh E 10.0 mph16.1 kmh 29.88 in1011.9 mb - 0.00 in0.0 mm 0.00 in0.0 mm
01:00 AM 70.1°F21.2°C 62.9°F17.2°C 78% 7.7 mph E12.4 kmh E 12.0 mph19.3 kmh 29.89 in1012.2 mb - 0.00 in0.0 mm 0.00 in0.0 mm
12:50 AM 70.0°F21.1°C 63.5°F17.5°C 80% 6.5 mph E10.5 kmh E 9.0 mph14.5 kmh 29.89 in1012.2 mb - 0.00 in0.0 mm 0.00 in0.0 mm
12:40 AM 70.1°F21.2°C 64.3°F17.9°C 82% 5.5 mph ENE8.9 kmh ENE 13.0 mph20.9 kmh 29.89 in1012.2 mb - 0.00 in0.0 mm 0.00 in0.0 mm
12:30 AM 70.1°F21.2°C 64.0°F17.8°C 81% 4.7 mph E7.6 kmh E 7.0 mph11.3 kmh 29.90 in1012.5 mb - 0.00 in0.0 mm 0.00 in0.0 mm
12:20 AM 69.9°F21.1°C 63.4°F17.4°C 80% 4.1 mph E6.6 kmh E 7.0 mph11.3 kmh 29.90 in1012.5 mb - 0.00 in0.0 mm 0.00 in0.0 mm
12:10 AM 69.5°F20.8°C 63.0°F17.2°C 80% 5.0 mph E8.0 kmh E 5.0 mph8.0 kmh 29.90 in1012.5 mb - 0.00 in0.0 mm 0.00 in0.0 mm
12:00 AM 69.0°F20.6°C 62.2°F16.8°C 79% 6.1 mph E9.8 kmh E 11.0 mph17.7 kmh 29.90 in1012.5 mb - 0.00 in0.0 mm 0.00 in0.0 mm